Time;durP1;ratioP1;P1;durP2;ratioP2;P2;SDS_P1;SDS_P2;PMS_P1;PMS_P2;Temp;Humidity;BMP_temperature;BMP_pressure;BME280_temperature;BME280_humidity;BME280_pressure;Samples;Min_cycle;Max_cycle;Signal;HPM_P1;HPM_P2
2022/03/08 00:01:21;;;;;;;1.10;1.10;;;-2.40;1.00;;;;;;5110494;23;20307;-78
2022/03/08 00:03:47;;;;;;;1.00;1.00;;;-2.50;1.00;;;;;;5071799;28;20209;-78
2022/03/08 00:06:13;;;;;;;0.93;0.93;;;-2.60;1.00;;;;;;5072316;28;20262;-78
2022/03/08 00:08:40;;;;;;;0.90;0.90;;;-2.60;2.50;;;;;;5072541;28;20182;-76
2022/03/08 00:11:06;;;;;;;0.90;0.90;;;-2.60;1.00;;;;;;5071416;28;20251;-76
2022/03/08 00:13:31;;;;;;;1.00;1.00;;;-2.60;1.00;;;;;;5072352;28;20181;-79
2022/03/08 00:15:57;;;;;;;1.00;1.00;;;-2.40;1.00;;;;;;5072530;28;20174;-76
2022/03/08 00:18:22;;;;;;;0.97;0.97;;;-2.20;1.00;;;;;;5070870;28;20453;-75
2022/03/08 00:20:48;;;;;;;0.90;0.90;;;-2.10;1.00;;;;;;5070175;28;20222;-75
2022/03/08 00:23:13;;;;;;;0.90;0.90;;;-2.40;1.00;;;;;;5070805;28;20213;-75
2022/03/08 00:25:39;;;;;;;0.90;0.90;;;-2.40;1.00;;;;;;5070028;28;20239;-74
2022/03/08 00:28:05;;;;;;;1.00;1.00;;;-2.30;1.00;;;;;;5070475;28;20216;-75
2022/03/08 00:30:30;;;;;;;1.00;1.00;;;-2.20;1.00;;;;;;5069745;28;20277;-76
2022/03/08 00:32:57;;;;;;;0.83;0.83;;;-1.70;1.00;;;;;;5070383;28;20254;-74
2022/03/08 00:35:24;;;;;;;1.00;1.00;;;-1.60;1.00;;;;;;5070267;28;20209;-75
2022/03/08 00:37:51;;;;;;;1.10;1.10;;;-1.90;1.00;;;;;;5070303;28;20178;-75
2022/03/08 00:40:19;;;;;;;1.00;1.00;;;-2.20;1.00;;;;;;5069698;28;20194;-75
2022/03/08 00:42:45;;;;;;;0.90;0.90;;;-2.20;1.00;;;;;;5070184;28;20240;-74
2022/03/08 00:45:11;;;;;;;1.00;1.00;;;-2.10;1.00;;;;;;5070034;28;20645;-74
2022/03/08 00:47:39;;;;;;;1.00;1.00;;;-1.80;1.00;;;;;;5069985;28;20182;-76
2022/03/08 00:50:06;;;;;;;1.00;1.00;;;-1.70;1.00;;;;;;5069910;28;20199;-75
2022/03/08 00:52:32;;;;;;;1.00;1.00;;;-2.30;1.00;;;;;;5068730;28;20205;-74
2022/03/08 00:54:58;;;;;;;1.00;1.00;;;-2.60;96.70;;;;;;5070289;28;20178;-75
2022/03/08 00:57:24;;;;;;;1.00;1.00;;;-2.80;99.90;;;;;;5070024;28;20171;-75
2022/03/08 00:59:49;;;;;;;0.97;0.97;;;-3.00;99.90;;;;;;5069450;28;20277;-76
2022/03/08 01:02:15;;;;;;;1.00;1.00;;;-3.10;1.00;;;;;;5069845;28;20700;-75
2022/03/08 01:04:40;;;;;;;0.80;0.80;;;-3.00;1.00;;;;;;5069903;28;20190;-77
2022/03/08 01:07:07;;;;;;;0.93;0.93;;;-3.10;1.00;;;;;;5070159;28;20190;-75
2022/03/08 01:09:33;;;;;;;1.00;1.00;;;-3.00;99.90;;;;;;5069383;28;20285;-76
2022/03/08 01:11:58;;;;;;;1.00;1.00;;;-3.00;99.90;;;;;;5069993;28;20187;-75
2022/03/08 01:14:24;;;;;;;1.00;1.00;;;-3.00;1.00;;;;;;5070013;28;20182;-76
2022/03/08 01:16:50;;;;;;;0.93;0.93;;;-3.10;1.00;;;;;;5069905;28;20261;-75
2022/03/08 01:19:15;;;;;;;1.00;1.00;;;-3.10;1.00;;;;;;5069483;28;20193;-76
2022/03/08 01:21:41;;;;;;;0.90;0.90;;;-3.30;1.00;;;;;;5069986;28;20214;-75
2022/03/08 01:24:06;;;;;;;0.90;0.90;;;-3.30;1.00;;;;;;5069969;28;20559;-75
2022/03/08 01:26:32;;;;;;;0.90;0.90;;;-3.50;99.90;;;;;;5069933;28;20256;-75
2022/03/08 01:28:58;;;;;;;1.00;1.00;;;-3.40;99.90;;;;;;5069217;28;20637;-75
2022/03/08 01:31:24;;;;;;;0.90;0.90;;;-3.60;99.90;;;;;;5069919;28;20178;-74
2022/03/08 01:33:49;;;;;;;0.90;0.90;;;-3.40;1.00;;;;;;5070147;28;20170;-76
2022/03/08 01:36:16;;;;;;;0.90;0.90;;;-3.50;97.40;;;;;;5069703;28;20175;-75
2022/03/08 01:38:42;;;;;;;0.90;0.90;;;-3.40;1.00;;;;;;5073245;28;20190;-75
2022/03/08 01:41:07;;;;;;;0.90;0.90;;;-3.90;1.00;;;;;;5072855;28;20198;-76
2022/03/08 01:43:33;;;;;;;0.80;0.80;;;-3.70;1.00;;;;;;5073407;28;20179;-73
2022/03/08 01:45:59;;;;;;;0.87;0.87;;;-3.70;1.00;;;;;;5073253;28;20190;-75
2022/03/08 01:48:24;;;;;;;0.90;0.90;;;-3.80;1.00;;;;;;5073661;28;20253;-75
2022/03/08 01:50:50;;;;;;;0.90;0.90;;;-3.80;1.00;;;;;;5072626;28;20193;-75
2022/03/08 01:53:16;;;;;;;1.00;1.00;;;-3.80;1.00;;;;;;5073439;28;20188;-75
2022/03/08 01:55:42;;;;;;;0.90;0.90;;;-3.80;1.00;;;;;;5073073;28;20647;-77
2022/03/08 01:58:07;;;;;;;0.90;0.90;;;-4.00;99.90;;;;;;5073258;28;20190;-77
2022/03/08 02:00:33;;;;;;;0.90;0.90;;;-3.90;99.90;;;;;;5072269;28;20210;-75
2022/03/08 02:02:59;;;;;;;0.90;0.90;;;-3.90;1.00;;;;;;5072694;28;20217;-75
2022/03/08 02:05:26;;;;;;;0.90;0.90;;;-3.90;99.90;;;;;;5073008;28;20379;-76
2022/03/08 02:07:52;;;;;;;1.00;1.00;;;-4.00;1.00;;;;;;5073167;28;20309;-75
2022/03/08 02:10:18;;;;;;;1.00;1.00;;;-4.10;1.00;;;;;;5072102;28;20399;-75
2022/03/08 02:12:43;;;;;;;0.90;0.90;;;-4.10;1.00;;;;;;5072975;28;20720;-75
2022/03/08 02:15:13;;;;;;;0.90;0.90;;;-3.90;99.90;;;;;;5072717;28;20262;-77
2022/03/08 02:17:38;;;;;;;0.97;0.97;;;-4.00;1.00;;;;;;5074188;28;20185;-75
2022/03/08 02:20:04;;;;;;;0.90;0.90;;;-3.90;1.00;;;;;;5076815;28;20202;-75
2022/03/08 02:22:29;;;;;;;1.10;1.10;;;-3.80;1.00;;;;;;5073675;28;20275;-76
2022/03/08 02:24:55;;;;;;;0.90;0.90;;;-3.90;99.90;;;;;;5073641;28;20179;-75
2022/03/08 02:27:21;;;;;;;0.90;0.90;;;-3.90;99.90;;;;;;5073031;28;20626;-76
2022/03/08 02:29:48;;;;;;;0.90;0.90;;;-4.00;1.00;;;;;;5071893;28;20240;-75
2022/03/08 02:32:13;;;;;;;0.90;0.90;;;-4.10;1.00;;;;;;5072605;28;20178;-75
2022/03/08 02:34:39;;;;;;;0.97;0.97;;;-4.20;1.00;;;;;;5072392;28;20170;-75
2022/03/08 02:37:12;;;;;;;1.00;1.00;;;-4.40;1.00;;;;;;5072132;28;20170;-74
2022/03/08 02:39:38;;;;;;;0.80;0.80;;;-4.30;1.00;;;;;;5071623;28;20190;-76
2022/03/08 02:42:05;;;;;;;1.03;1.03;;;-4.20;1.00;;;;;;5071962;28;20217;-75
2022/03/08 02:44:31;;;;;;;1.00;1.00;;;-4.10;1.00;;;;;;5071993;28;20243;-75
2022/03/08 02:47:01;;;;;;;0.90;0.90;;;-4.00;1.00;;;;;;5072111;28;20175;-75
2022/03/08 02:49:26;;;;;;;1.00;1.00;;;-4.10;99.90;;;;;;5071160;28;20194;-74
2022/03/08 02:51:53;;;;;;;1.00;1.00;;;-4.30;1.00;;;;;;5072016;28;20171;-76
2022/03/08 02:54:18;;;;;;;1.00;1.00;;;-4.40;1.00;;;;;;5071902;28;20645;-76
2022/03/08 02:56:44;;;;;;;1.00;1.00;;;-4.80;99.90;;;;;;5071803;28;20172;-75
2022/03/08 02:59:09;;;;;;;1.00;1.00;;;-4.90;99.90;;;;;;5071068;28;20671;-75
2022/03/08 03:01:35;;;;;;;0.90;0.90;;;-4.70;1.00;;;;;;5071608;28;20210;-74
2022/03/08 03:04:00;;;;;;;0.90;0.90;;;-4.80;1.00;;;;;;5071867;28;20174;-71
2022/03/08 03:06:26;;;;;;;1.00;1.00;;;-4.80;99.90;;;;;;5072195;28;20230;-75
2022/03/08 03:08:51;;;;;;;1.00;1.00;;;-4.80;1.00;;;;;;5071307;28;20521;-75
2022/03/08 03:11:17;;;;;;;1.00;1.00;;;-4.70;1.00;;;;;;5071483;28;20222;-73
2022/03/08 03:13:42;;;;;;;1.00;1.00;;;-4.50;99.90;;;;;;5071733;28;20178;-72
2022/03/08 03:16:08;;;;;;;0.90;0.90;;;-4.30;99.90;;;;;;5071642;28;20633;-75
2022/03/08 03:18:33;;;;;;;0.90;0.90;;;-4.40;2.30;;;;;;5071431;28;20221;-72
2022/03/08 03:20:59;;;;;;;0.90;0.90;;;-4.40;10.00;;;;;;5070985;28;20194;-74
2022/03/08 03:23:24;;;;;;;0.90;0.90;;;-4.10;1.00;;;;;;5071410;28;20175;-76
2022/03/08 03:25:50;;;;;;;1.00;1.00;;;-4.00;99.90;;;;;;5071457;28;20181;-74
2022/03/08 03:28:15;;;;;;;0.80;0.80;;;-4.00;1.00;;;;;;5071785;28;20190;-76
2022/03/08 03:30:41;;;;;;;0.90;0.90;;;-3.80;1.00;;;;;;5070902;28;20633;-75
2022/03/08 03:33:07;;;;;;;0.87;0.87;;;-3.70;1.00;;;;;;5071143;28;20175;-72
2022/03/08 03:35:32;;;;;;;0.80;0.80;;;-3.50;99.90;;;;;;5071268;28;20182;-74
2022/03/08 03:37:58;;;;;;;0.90;0.90;;;-3.10;99.90;;;;;;5071221;28;20216;-75
2022/03/08 03:40:23;;;;;;;0.90;0.90;;;-2.80;1.00;;;;;;5070518;28;20194;-75
2022/03/08 03:42:49;;;;;;;0.90;0.90;;;-2.60;1.00;;;;;;5071302;28;20213;-75
2022/03/08 03:45:15;;;;;;;0.80;0.80;;;-2.50;1.00;;;;;;5072597;28;20563;-74
2022/03/08 03:47:41;;;;;;;0.90;0.90;;;-2.30;1.00;;;;;;5071250;28;20220;-76
2022/03/08 03:50:08;;;;;;;1.00;1.00;;;-2.30;1.00;;;;;;5070567;28;20226;-75
2022/03/08 03:52:33;;;;;;;0.80;0.80;;;-2.30;1.00;;;;;;5071034;28;20186;-76
2022/03/08 03:54:59;;;;;;;0.93;0.93;;;-2.20;1.00;;;;;;5070877;28;20718;-75
2022/03/08 03:57:25;;;;;;;1.00;1.00;;;-2.30;1.00;;;;;;5071132;28;20432;-75
2022/03/08 03:59:50;;;;;;;0.80;0.80;;;-2.50;1.00;;;;;;5069945;28;20666;-76
2022/03/08 04:02:16;;;;;;;0.90;0.90;;;-2.60;1.00;;;;;;5070847;28;20214;-75
2022/03/08 04:04:42;;;;;;;0.80;0.80;;;-2.40;1.00;;;;;;5070808;28;20655;-75
2022/03/08 04:07:07;;;;;;;0.90;0.90;;;-2.30;1.00;;;;;;5070943;28;20183;-75
2022/03/08 04:09:33;;;;;;;0.80;0.80;;;-2.10;1.00;;;;;;5070223;28;20194;-76
2022/03/08 04:11:58;;;;;;;1.00;1.00;;;-2.10;1.00;;;;;;5070694;28;20216;-75
2022/03/08 04:14:25;;;;;;;1.00;1.00;;;-1.90;1.00;;;;;;5070914;28;20178;-75
2022/03/08 04:16:51;;;;;;;1.00;1.00;;;-1.80;1.00;;;;;;5070672;28;20193;-76
2022/03/08 04:19:17;;;;;;;1.00;1.00;;;-1.80;1.00;;;;;;5070324;28;20255;-76
2022/03/08 04:21:43;;;;;;;0.80;0.80;;;-1.80;1.00;;;;;;5070611;28;20293;-75
2022/03/08 04:24:08;;;;;;;1.00;1.00;;;-1.70;1.00;;;;;;5070560;28;20171;-74
2022/03/08 04:26:34;;;;;;;0.90;0.90;;;-1.60;1.00;;;;;;5070479;28;20175;-75
2022/03/08 04:29:00;;;;;;;1.03;1.03;;;-1.50;1.00;;;;;;5069905;28;20251;-76
2022/03/08 04:31:26;;;;;;;0.90;0.90;;;-1.50;1.00;;;;;;5070099;28;20269;-75
2022/03/08 04:33:51;;;;;;;0.80;0.80;;;-1.50;1.00;;;;;;5070281;28;20206;-75
2022/03/08 04:36:17;;;;;;;0.87;0.87;;;-1.50;1.00;;;;;;5070286;28;20183;-76
2022/03/08 04:38:42;;;;;;;0.90;0.90;;;-1.40;1.00;;;;;;5070159;28;20178;-74
2022/03/08 04:41:08;;;;;;;0.90;0.90;;;-1.30;1.00;;;;;;5069682;28;20677;-75
2022/03/08 04:43:34;;;;;;;0.90;0.90;;;-1.10;1.00;;;;;;5070297;28;20208;-75
2022/03/08 04:45:59;;;;;;;0.90;0.90;;;-1.20;1.00;;;;;;5070462;28;20266;-74
2022/03/08 04:48:25;;;;;;;1.00;1.00;;;-1.20;1.00;;;;;;5070311;28;20220;-75
2022/03/08 04:50:50;;;;;;;0.90;0.90;;;-1.10;1.00;;;;;;5069242;28;20205;-75
2022/03/08 04:53:16;;;;;;;1.00;1.00;;;-1.20;1.00;;;;;;5070265;28;20185;-76
2022/03/08 04:55:41;;;;;;;0.90;0.90;;;-1.10;1.00;;;;;;5070133;28;20275;-73
2022/03/08 04:58:07;;;;;;;0.80;0.80;;;-0.90;1.00;;;;;;5070335;28;20178;-75
2022/03/08 05:00:33;;;;;;;0.87;0.87;;;-1.10;1.00;;;;;;5069525;28;20195;-77
2022/03/08 05:02:58;;;;;;;0.90;0.90;;;-1.00;1.00;;;;;;5070977;28;20578;-77
2022/03/08 05:05:24;;;;;;;0.83;0.83;;;-1.10;1.00;;;;;;5070611;28;20184;-76
2022/03/08 05:07:50;;;;;;;1.00;1.00;;;-1.10;1.00;;;;;;5070927;28;20170;-75
2022/03/08 05:10:15;;;;;;;0.90;0.90;;;-1.00;1.00;;;;;;5069825;28;20234;-75
2022/03/08 05:12:41;;;;;;;0.80;0.80;;;-1.00;1.00;;;;;;5074661;28;20166;-76
2022/03/08 05:15:08;;;;;;;0.90;0.90;;;-1.10;1.00;;;;;;5075056;28;20228;-77
2022/03/08 05:17:34;;;;;;;0.90;0.90;;;-1.10;1.00;;;;;;5074582;28;20668;-75
2022/03/08 05:19:59;;;;;;;0.73;0.73;;;-1.10;1.00;;;;;;5074380;28;20205;-76
2022/03/08 05:22:25;;;;;;;0.90;0.90;;;-1.10;1.00;;;;;;5074583;28;20259;-77
2022/03/08 05:24:50;;;;;;;0.83;0.83;;;-1.10;1.00;;;;;;5074649;28;20174;-75
2022/03/08 05:27:16;;;;;;;0.80;0.80;;;-1.00;1.00;;;;;;5075219;28;20308;-76
2022/03/08 05:29:41;;;;;;;0.80;0.80;;;11.60;99.90;;;;;;5076236;28;20216;-79
2022/03/08 05:32:07;;;;;;;0.80;0.80;;;13.90;1.00;;;;;;5078441;28;20182;-84
2022/03/08 05:34:33;;;;;;;0.70;0.70;;;15.40;1.00;;;;;;5079575;28;20170;-78
2022/03/08 05:36:59;;;;;;;0.60;0.60;;;14.20;1.00;;;;;;5075970;28;20193;-75
2022/03/08 05:39:25;;;;;;;0.70;0.70;;;8.40;1.00;;;;;;5073506;28;20201;-75
2022/03/08 05:41:51;;;;;;;0.77;0.77;;;2.50;1.00;;;;;;5074217;28;20271;-75
2022/03/08 05:44:16;;;;;;;0.80;0.80;;;0.70;1.00;;;;;;5074040;28;20708;-74
2022/03/08 05:46:43;;;;;;;0.80;0.80;;;0.10;1.00;;;;;;5074078;28;20183;-75
2022/03/08 05:49:08;;;;;;;0.83;0.83;;;-0.30;1.00;;;;;;5073423;28;20166;-76
2022/03/08 05:51:34;;;;;;;0.70;0.70;;;-0.50;1.00;;;;;;5073950;28;20185;-74
2022/03/08 05:54:00;;;;;;;0.90;0.90;;;-0.60;1.00;;;;;;5072077;28;20178;-74
2022/03/08 05:56:26;;;;;;;0.87;0.87;;;-0.70;1.00;;;;;;5074087;28;20171;-74
2022/03/08 05:58:51;;;;;;;0.90;0.90;;;-0.80;1.00;;;;;;5073504;28;20543;-75
2022/03/08 06:01:17;;;;;;;0.83;0.83;;;-0.80;1.00;;;;;;5086084;23;20227;-74
2022/03/08 06:03:43;;;;;;;0.80;0.80;;;-0.80;1.00;;;;;;5054508;28;20638;-74
2022/03/08 06:06:08;;;;;;;0.77;0.77;;;-0.80;1.00;;;;;;5054350;28;20179;-73
2022/03/08 06:08:34;;;;;;;0.87;0.87;;;-0.70;1.00;;;;;;5054055;28;20189;-73
2022/03/08 06:10:59;;;;;;;0.80;0.80;;;-0.80;1.00;;;;;;5070698;28;20198;-73
2022/03/08 06:13:25;;;;;;;0.80;0.80;;;-0.80;1.00;;;;;;5074440;28;20185;-75
2022/03/08 06:15:50;;;;;;;0.87;0.87;;;-0.80;1.00;;;;;;5074254;28;20544;-74
2022/03/08 06:18:16;;;;;;;0.80;0.80;;;-0.80;1.00;;;;;;5074031;28;20205;-71
2022/03/08 06:20:41;;;;;;;0.80;0.80;;;-0.80;1.00;;;;;;5073330;28;20195;-72
2022/03/08 06:23:07;;;;;;;0.87;0.87;;;-0.80;1.00;;;;;;5073104;28;20300;-71
2022/03/08 06:25:33;;;;;;;0.83;0.83;;;-0.70;1.00;;;;;;5073771;28;20178;-71
2022/03/08 06:27:58;;;;;;;0.80;0.80;;;-0.60;1.00;;;;;;5074053;28;20182;-74
2022/03/08 06:30:24;;;;;;;0.70;0.70;;;-0.50;1.00;;;;;;5073290;28;20589;-70
2022/03/08 06:32:49;;;;;;;0.80;0.80;;;-0.40;1.00;;;;;;5073595;28;20281;-70
2022/03/08 06:35:15;;;;;;;0.87;0.87;;;-0.20;1.00;;;;;;5073456;28;20261;-71
2022/03/08 06:37:41;;;;;;;0.80;0.80;;;-0.10;1.00;;;;;;5073422;28;20175;-71
2022/03/08 06:40:07;;;;;;;0.80;0.80;;;0.00;1.00;;;;;;5072950;28;20705;-71
2022/03/08 06:42:33;;;;;;;0.80;0.80;;;0.10;1.00;;;;;;5073374;28;20287;-71
2022/03/08 06:44:58;;;;;;;0.70;0.70;;;0.20;1.00;;;;;;5073609;28;20166;-71
2022/03/08 06:47:24;;;;;;;0.90;0.90;;;0.40;1.00;;;;;;5073613;28;20224;-69
2022/03/08 06:49:50;;;;;;;0.80;0.80;;;0.40;1.00;;;;;;5072674;28;20206;-70
2022/03/08 06:52:15;;;;;;;0.80;0.80;;;0.50;1.00;;;;;;5073167;28;20175;-72
2022/03/08 06:54:41;;;;;;;0.90;0.90;;;0.70;1.00;;;;;;5073007;28;20179;-71
2022/03/08 06:57:07;;;;;;;0.80;0.80;;;1.20;1.00;;;;;;5073198;28;20175;-72
2022/03/08 06:59:33;;;;;;;0.80;0.80;;;1.90;1.00;;;;;;5072709;28;20190;-70
2022/03/08 07:01:59;;;;;;;0.90;0.90;;;1.70;1.00;;;;;;5072735;28;20322;-72
2022/03/08 07:04:25;;;;;;;0.80;0.80;;;2.90;1.00;;;;;;5072977;28;20182;-72
2022/03/08 07:06:51;;;;;;;0.80;0.80;;;4.10;1.00;;;;;;5072760;28;20170;-72
2022/03/08 07:09:17;;;;;;;1.00;1.00;;;4.10;1.00;;;;;;5072159;28;20293;-73
2022/03/08 07:11:43;;;;;;;0.90;0.90;;;4.60;1.00;;;;;;5072832;28;20232;-71
2022/03/08 07:14:08;;;;;;;0.80;0.80;;;4.20;1.00;;;;;;5072663;28;20243;-72
2022/03/08 07:16:34;;;;;;;0.80;0.80;;;4.70;1.00;;;;;;5072619;28;20175;-72
2022/03/08 07:19:00;;;;;;;0.80;0.80;;;5.00;1.00;;;;;;5072041;28;20593;-72
2022/03/08 07:21:25;;;;;;;0.80;0.80;;;5.50;1.00;;;;;;5072627;28;20546;-72
2022/03/08 07:23:51;;;;;;;0.70;0.70;;;5.70;1.00;;;;;;5072677;28;20178;-72
2022/03/08 07:26:17;;;;;;;0.60;0.60;;;5.80;1.00;;;;;;5072747;28;20257;-73
2022/03/08 07:28:42;;;;;;;0.67;0.67;;;6.10;1.00;;;;;;5072695;28;20261;-73
2022/03/08 07:31:08;;;;;;;0.60;0.60;;;5.90;1.00;;;;;;5071996;28;20243;-72
2022/03/08 07:33:34;;;;;;;0.60;0.60;;;6.70;1.00;;;;;;5072691;28;20215;-71
2022/03/08 07:36:00;;;;;;;0.60;0.60;;;7.60;1.00;;;;;;5071443;28;20227;-74
2022/03/08 07:38:26;;;;;;;0.60;0.60;;;8.10;1.00;;;;;;5072529;28;20186;-73
2022/03/08 07:40:52;;;;;;;0.50;0.50;;;8.40;1.00;;;;;;5072045;28;20255;-74
2022/03/08 07:43:18;;;;;;;0.50;0.50;;;8.50;1.00;;;;;;5072266;28;20676;-73
2022/03/08 07:45:43;;;;;;;0.50;0.50;;;7.30;1.00;;;;;;5072383;28;20180;-73
2022/03/08 07:48:09;;;;;;;0.50;0.50;;;8.10;1.00;;;;;;5072353;28;20569;-71
2022/03/08 07:50:36;;;;;;;0.50;0.50;;;8.40;1.00;;;;;;5073533;28;20224;-73
2022/03/08 07:53:03;;;;;;;0.40;0.40;;;8.60;1.00;;;;;;5074505;28;20171;-70
2022/03/08 07:55:32;;;;;;;0.40;0.40;;;9.40;1.00;;;;;;5073275;28;20182;-73
2022/03/08 07:57:59;;;;;;;0.47;0.47;;;8.70;1.00;;;;;;5072828;28;20256;-73
2022/03/08 08:00:26;;;;;;;0.50;0.50;;;7.90;1.00;;;;;;5071262;28;20695;-71
2022/03/08 08:02:51;;;;;;;0.30;0.30;;;8.70;1.00;;;;;;5071781;28;20217;-73
2022/03/08 08:05:18;;;;;;;0.40;0.40;;;9.60;1.00;;;;;;5072387;28;20269;-72
2022/03/08 08:07:44;;;;;;;0.40;0.40;;;9.60;1.00;;;;;;5072583;28;20174;-71
2022/03/08 08:10:10;;;;;;;0.30;0.30;;;9.80;1.00;;;;;;5072231;28;20194;-73
2022/03/08 08:12:36;;;;;;;0.47;0.47;;;9.10;1.00;;;;;;5072411;28;20645;-72
2022/03/08 08:15:02;;;;;;;0.40;0.40;;;9.90;1.00;;;;;;5072376;28;20198;-71
2022/03/08 08:17:28;;;;;;;0.40;0.40;;;10.20;1.00;;;;;;5071524;28;20179;-72
2022/03/08 08:19:53;;;;;;;0.43;0.43;;;9.80;1.00;;;;;;5072019;28;20186;-73
2022/03/08 08:22:19;;;;;;;0.40;0.40;;;8.70;1.00;;;;;;5071747;28;20217;-72
2022/03/08 08:24:44;;;;;;;0.40;0.40;;;9.70;1.00;;;;;;5071846;28;20645;-71
2022/03/08 08:27:10;;;;;;;0.50;0.50;;;8.60;1.00;;;;;;5071460;28;20489;-73
2022/03/08 08:29:35;;;;;;;0.40;0.40;;;8.80;1.00;;;;;;5072436;28;20217;-72
2022/03/08 08:32:01;;;;;;;0.60;0.60;;;8.20;1.00;;;;;;5071913;28;20201;-73
2022/03/08 08:34:26;;;;;;;0.60;0.60;;;7.80;1.00;;;;;;5071700;28;20197;-73
2022/03/08 08:36:54;;;;;;;0.50;0.50;;;8.50;1.00;;;;;;5072287;28;20239;-73
2022/03/08 08:39:19;;;;;;;0.57;0.57;;;7.70;1.00;;;;;;5072034;28;20272;-73
2022/03/08 08:41:45;;;;;;;0.60;0.60;;;8.50;1.00;;;;;;5072421;28;20272;-72
2022/03/08 08:44:11;;;;;;;0.60;0.60;;;7.50;1.00;;;;;;5072099;28;20162;-72
2022/03/08 08:46:38;;;;;;;0.60;0.60;;;8.00;1.00;;;;;;5075682;28;20185;-72
2022/03/08 08:49:04;;;;;;;0.60;0.60;;;8.60;1.00;;;;;;5078398;28;20171;-73
2022/03/08 08:51:31;;;;;;;0.50;0.50;;;7.10;1.00;;;;;;5078277;28;20643;-73
2022/03/08 08:53:56;;;;;;;0.63;0.63;;;7.50;1.00;;;;;;5078116;28;20174;-71
2022/03/08 08:56:22;;;;;;;0.60;0.60;;;8.20;1.00;;;;;;5078383;28;20193;-72
2022/03/08 08:58:48;;;;;;;0.70;0.70;;;8.80;1.00;;;;;;5079627;28;20174;-71
2022/03/08 09:01:14;;;;;;;0.57;0.57;;;8.10;1.00;;;;;;5077315;28;20198;-71
2022/03/08 09:03:40;;;;;;;0.50;0.50;;;8.20;1.00;;;;;;5078148;28;20437;-71
2022/03/08 09:06:05;;;;;;;0.50;0.50;;;7.20;1.00;;;;;;5077988;28;20178;-71
2022/03/08 09:08:31;;;;;;;0.60;0.60;;;6.90;1.00;;;;;;5077849;28;20261;-72
2022/03/08 09:10:56;;;;;;;0.60;0.60;;;7.30;1.00;;;;;;5076986;28;20251;-71
2022/03/08 09:13:23;;;;;;;0.60;0.60;;;7.70;1.00;;;;;;5077548;28;20170;-71
2022/03/08 09:15:49;;;;;;;0.50;0.50;;;7.40;1.00;;;;;;5077647;28;20175;-72
2022/03/08 09:18:15;;;;;;;0.60;0.60;;;7.40;1.00;;;;;;5077578;28;20185;-71
2022/03/08 09:20:42;;;;;;;0.60;0.60;;;7.10;1.00;;;;;;5077005;28;20194;-73
2022/03/08 09:23:08;;;;;;;0.60;0.60;;;7.20;1.00;;;;;;5077540;28;20398;-72
2022/03/08 09:25:34;;;;;;;0.50;0.50;;;7.90;1.00;;;;;;5077365;28;20636;-73
2022/03/08 09:28:02;;;;;;;0.60;0.60;;;9.10;1.00;;;;;;5077694;28;20185;-72
2022/03/08 09:30:28;;;;;;;0.60;0.60;;;8.50;1.00;;;;;;5076956;28;20191;-73
2022/03/08 09:32:56;;;;;;;0.50;0.50;;;8.10;1.00;;;;;;5077748;28;20208;-73
2022/03/08 09:35:22;;;;;;;0.50;0.50;;;8.50;1.00;;;;;;5077585;28;20181;-72
2022/03/08 09:37:47;;;;;;;0.60;0.60;;;7.50;1.00;;;;;;5077492;28;20170;-73
2022/03/08 09:40:13;;;;;;;0.60;0.60;;;8.00;1.00;;;;;;5076808;28;20542;-72
2022/03/08 09:42:39;;;;;;;0.60;0.60;;;8.20;1.00;;;;;;5077283;28;20230;-73
2022/03/08 09:45:05;;;;;;;0.50;0.50;;;8.20;1.00;;;;;;5077279;28;20177;-73
2022/03/08 09:47:30;;;;;;;0.60;0.60;;;8.10;1.00;;;;;;5059506;28;20185;-72
2022/03/08 09:49:56;;;;;;;0.60;0.60;;;7.90;1.00;;;;;;5076744;28;20198;-72
2022/03/08 09:52:23;;;;;;;0.50;0.50;;;7.70;1.00;;;;;;5077381;28;20179;-72
2022/03/08 09:54:48;;;;;;;0.60;0.60;;;8.40;1.00;;;;;;5078366;28;20208;-73
2022/03/08 09:57:18;;;;;;;0.70;0.70;;;8.10;1.00;;;;;;5077612;28;20226;-72
2022/03/08 09:59:44;;;;;;;0.70;0.70;;;8.90;1.00;;;;;;5074096;28;20225;-73
2022/03/08 10:02:14;;;;;;;0.60;0.60;;;8.70;1.00;;;;;;5074923;28;20692;-73
2022/03/08 10:04:39;;;;;;;0.67;0.67;;;9.00;1.00;;;;;;5074289;28;20175;-72
2022/03/08 10:07:12;;;;;;;0.60;0.60;;;9.50;1.00;;;;;;5074044;28;20764;-73
2022/03/08 10:09:38;;;;;;;0.67;0.67;;;8.70;1.00;;;;;;5079027;28;20235;-74
2022/03/08 10:12:15;;;;;;;0.60;0.60;;;9.50;1.00;;;;;;5074865;28;20264;-72
2022/03/08 10:14:41;;;;;;;0.60;0.60;;;9.50;1.00;;;;;;5073949;28;20178;-71
2022/03/08 10:17:08;;;;;;;0.60;0.60;;;9.70;1.00;;;;;;5074184;28;20543;-72
2022/03/08 10:19:44;;;;;;;0.60;0.60;;;10.00;1.00;;;;;;5073473;28;20205;-72
2022/03/08 10:22:24;;;;;;;0.53;0.53;;;9.90;1.00;;;;;;5073877;28;20259;-72
2022/03/08 10:24:49;;;;;;;0.67;0.67;;;10.30;1.00;;;;;;5073604;28;20182;-72
2022/03/08 10:27:16;;;;;;;0.50;0.50;;;10.10;1.00;;;;;;5074007;28;20273;-72
2022/03/08 10:29:42;;;;;;;0.57;0.57;;;9.10;1.00;;;;;;5073837;28;20194;-72
2022/03/08 10:32:17;;;;;;;0.60;0.60;;;9.40;1.00;;;;;;5074383;28;20202;-72
2022/03/08 10:34:44;;;;;;;0.50;0.50;;;9.70;1.00;;;;;;5073932;28;20176;-72
2022/03/08 10:37:17;;;;;;;0.60;0.60;;;10.00;1.00;;;;;;5073699;28;20201;-72
2022/03/08 10:39:54;;;;;;;0.60;0.60;;;10.90;1.00;;;;;;5069822;28;20584;-72
2022/03/08 10:42:23;;;;;;;0.40;0.40;;;9.60;1.00;;;;;;5075270;28;20594;-70
2022/03/08 10:44:49;;;;;;;0.40;0.40;;;11.10;1.00;;;;;;5075841;28;20251;-72
2022/03/08 10:47:16;;;;;;;0.50;0.50;;;11.30;1.00;;;;;;5075267;28;20640;-72
2022/03/08 10:50:02;;;;;;;0.50;0.50;;;11.10;1.00;;;;;;5077098;28;20202;-70
2022/03/08 10:52:33;;;;;;;0.60;0.60;;;10.50;1.00;;;;;;5077303;28;20194;-71
2022/03/08 10:55:11;;;;;;;0.50;0.50;;;11.10;1.00;;;;;;5075558;28;20228;-73
2022/03/08 10:57:38;;;;;;;0.60;0.60;;;10.20;1.00;;;;;;5073347;28;20182;-71
2022/03/08 11:00:09;;;;;;;0.50;0.50;;;9.90;1.00;;;;;;5072258;28;20190;-71
2022/03/08 11:02:35;;;;;;;0.50;0.50;;;9.90;1.00;;;;;;5063379;28;20298;-74
2022/03/08 11:05:10;;;;;;;0.60;0.60;;;10.10;1.00;;;;;;5052976;28;20262;-75
2022/03/08 11:07:37;;;;;;;0.50;0.50;;;11.90;1.00;;;;;;5052892;28;20190;-75
2022/03/08 11:10:04;;;;;;;0.47;0.47;;;11.10;1.00;;;;;;5051886;28;20257;-75
2022/03/08 11:12:30;;;;;;;0.57;0.57;;;10.50;1.00;;;;;;5052604;28;20171;-74
2022/03/08 11:14:56;;;;;;;0.47;0.47;;;12.60;1.00;;;;;;5052869;28;20718;-75
2022/03/08 11:17:23;;;;;;;0.40;0.40;;;14.10;1.00;;;;;;5052903;28;20183;-74
2022/03/08 11:19:50;;;;;;;0.50;0.50;;;12.30;1.00;;;;;;5052087;28;20203;-75
2022/03/08 11:22:18;;;;;;;0.40;0.40;;;11.90;1.00;;;;;;5052560;28;20269;-75
2022/03/08 11:24:44;;;;;;;0.50;0.50;;;12.90;1.00;;;;;;5061261;28;20258;-75
2022/03/08 11:27:13;;;;;;;0.50;0.50;;;12.10;1.00;;;;;;5069548;28;20182;-74
2022/03/08 11:29:39;;;;;;;0.50;0.50;;;11.80;1.00;;;;;;5071684;28;20627;-76
2022/03/08 11:32:10;;;;;;;0.50;0.50;;;11.50;1.00;;;;;;5072432;28;20178;-75
2022/03/08 11:34:41;;;;;;;0.50;0.50;;;10.80;1.00;;;;;;5072275;28;20256;-75
2022/03/08 11:37:19;;;;;;;0.53;0.53;;;11.80;1.00;;;;;;5074423;28;20252;-71
2022/03/08 11:40:03;;;;;;;0.60;0.60;;;10.10;1.00;;;;;;5071999;28;20640;-73
2022/03/08 11:42:31;;;;;;;0.60;0.60;;;10.50;1.00;;;;;;5071477;28;20214;-73
2022/03/08 11:45:08;;;;;;;0.50;0.50;;;11.20;1.00;;;;;;5064128;28;20177;-73
2022/03/08 11:47:43;;;;;;;0.50;0.50;;;11.50;1.00;;;;;;5060946;28;20198;-75
2022/03/08 11:50:25;;;;;;;0.50;0.50;;;11.80;1.00;;;;;;5061956;28;20202;-74
2022/03/08 11:53:11;;;;;;;0.43;0.43;;;11.80;1.00;;;;;;5062137;28;20187;-73
2022/03/08 11:55:50;;;;;;;0.50;0.50;;;11.70;1.00;;;;;;5062515;28;20174;-72
2022/03/08 11:58:20;;;;;;;0.50;0.50;;;11.70;1.00;;;;;;5062352;28;20201;-72
2022/03/08 12:00:57;;;;;;;0.57;0.57;;;11.20;1.00;;;;;;5061644;28;20674;-74
2022/03/08 12:03:23;;;;;;;0.50;0.50;;;11.40;1.00;;;;;;5062091;28;20252;-73
2022/03/08 12:06:09;;;;;;;0.60;0.60;;;11.20;1.00;;;;;;5069451;28;20213;-73
2022/03/08 12:08:38;;;;;;;0.60;0.60;;;12.60;1.00;;;;;;5070012;28;20178;-72
2022/03/08 12:11:07;;;;;;;0.40;0.40;;;12.40;1.00;;;;;;5070522;28;20587;-74
2022/03/08 12:13:44;;;;;;;0.70;0.70;;;13.20;1.00;;;;;;5067825;28;20265;-75
2022/03/08 12:16:09;;;;;;;0.47;0.47;;;13.80;1.00;;;;;;5071226;28;20186;-74
2022/03/08 12:18:55;;;;;;;0.50;0.50;;;13.60;1.00;;;;;;5071258;28;20204;-75
2022/03/08 12:21:27;;;;;;;0.50;0.50;;;12.50;1.00;;;;;;5070446;28;20199;-75
2022/03/08 12:24:01;;;;;;;0.50;0.50;;;13.20;1.00;;;;;;5070887;28;20190;-75
2022/03/08 12:26:29;;;;;;;0.40;0.40;;;13.30;1.00;;;;;;5071431;28;20182;-74
2022/03/08 12:29:14;;;;;;;0.50;0.50;;;14.30;1.00;;;;;;5057673;28;20267;-76
2022/03/08 12:31:58;;;;;;;0.50;0.50;;;14.00;1.00;;;;;;5072170;28;20178;-76
2022/03/08 12:34:33;;;;;;;0.50;0.50;;;12.60;1.00;;;;;;5072357;28;20170;-75
2022/03/08 12:37:17;;;;;;;0.50;0.50;;;12.40;1.00;;;;;;5071405;28;20227;-73
2022/03/08 12:40:01;;;;;;;0.47;0.47;;;14.00;1.00;;;;;;5070667;28;20233;-73
2022/03/08 12:42:47;;;;;;;0.50;0.50;;;12.80;1.00;;;;;;5069544;28;20301;-75
2022/03/08 12:45:12;;;;;;;0.60;0.60;;;12.90;1.00;;;;;;5064829;28;20220;-76
2022/03/08 12:47:40;;;;;;;0.50;0.50;;;13.30;1.00;;;;;;5070954;28;20206;-75
2022/03/08 12:50:08;;;;;;;0.50;0.50;;;13.60;1.00;;;;;;5068003;28;20205;-74
2022/03/08 12:52:40;;;;;;;0.50;0.50;;;12.90;1.00;;;;;;5070786;28;20644;-72
2022/03/08 12:55:09;;;;;;;0.50;0.50;;;11.80;1.00;;;;;;5071208;28;20644;-73
2022/03/08 12:57:44;;;;;;;0.57;0.57;;;12.80;1.00;;;;;;5071131;28;20178;-73
2022/03/08 13:00:11;;;;;;;0.53;0.53;;;12.60;1.00;;;;;;5068453;28;20197;-75